Terminal Aerodrome Forecast
Issued by NWS

Home | Current Version | Previous Version | Text Only | Print | Product List | Glossary On
Versions: 1 2 3 4 5 6 7 8 9 10 11 12 13 14 15 16 17 18 19 20 21 22 23
000
FTUS41 KBTV 041729
TAFPBG
TAF
KPBG 041729Z 0418/0518 18015G25KT P6SM SCT100
     FM050000 21007KT P6SM OVC080
     FM050300 24007KT 6SM -RA OVC040
     FM050800 32008KT P6SM BKN040
     FM051300 32009KT P6SM SKC=

USA.gov is the U.S. government's official web portal to all federal, state and local government web resources and services.